Time;durP1;ratioP1;P1;durP2;ratioP2;P2;SDS_P1;SDS_P2;PMS_P1;PMS_P2;Temp;Humidity;BMP_temperature;BMP_pressure;BME280_temperature;BME280_humidity;BME280_pressure;Samples;Min_cycle;Max_cycle;Signal;HPM_P1;HPM_P2
2021/09/17 00:00:41;;;;;;;9.07;1.30;;;;;;;13.39;100.00;100428.25;5076091;28;20020;-88
2021/09/17 00:03:06;;;;;;;5.65;1.00;;;;;;;13.38;100.00;100425.72;5076181;28;20027;-88
2021/09/17 00:05:32;;;;;;;9.68;1.35;;;;;;;13.32;100.00;100426.75;5058144;28;20028;-88
2021/09/17 00:07:57;;;;;;;7.30;1.55;;;;;;;13.31;100.00;100425.91;5057982;28;20032;-88
2021/09/17 00:10:23;;;;;;;8.50;1.08;;;;;;;13.30;100.00;100415.53;5058943;28;20031;-88
2021/09/17 00:12:49;;;;;;;10.45;1.58;;;;;;;13.25;100.00;100412.22;5058164;28;20023;-88
2021/09/17 00:15:15;;;;;;;9.52;1.00;;;;;;;13.21;100.00;100416.66;5057728;28;20032;-89
2021/09/17 00:17:41;;;;;;;4.90;0.80;;;;;;;13.19;100.00;100418.44;5057921;28;20070;-88
2021/09/17 00:20:08;;;;;;;8.70;1.02;;;;;;;13.23;100.00;100412.22;5075876;28;20027;-89
2021/09/17 00:22:33;;;;;;;5.85;0.80;;;;;;;13.23;100.00;100416.59;5057806;28;20027;-89
2021/09/17 00:24:59;;;;;;;6.88;1.02;;;;;;;13.21;100.00;100410.56;5075643;28;20143;-89
2021/09/17 00:27:24;;;;;;;6.95;0.90;;;;;;;13.23;100.00;100408.78;5075663;28;20028;-89
2021/09/17 00:29:49;;;;;;;6.78;0.95;;;;;;;13.21;100.00;100407.97;5057733;28;20028;-88
2021/09/17 00:32:14;;;;;;;6.57;1.10;;;;;;;13.22;100.00;100413.13;5057602;28;20027;-88
2021/09/17 00:34:40;;;;;;;8.82;1.00;;;;;;;13.23;100.00;100412.22;5076359;28;20047;-89
2021/09/17 00:37:05;;;;;;;8.38;1.23;;;;;;;13.23;100.00;100411.38;5057904;28;20024;-89
2021/09/17 00:39:31;;;;;;;10.52;1.05;;;;;;;13.19;100.00;100407.19;5057614;28;20075;-88
2021/09/17 00:41:57;;;;;;;7.00;0.80;;;;;;;13.20;100.00;100414.06;5075650;28;20060;-88
2021/09/17 00:44:24;;;;;;;5.30;0.68;;;;;;;13.21;100.00;100407.97;5075739;28;20174;-88
2021/09/17 00:46:50;;;;;;;5.05;0.80;;;;;;;13.13;100.00;100411.66;5056808;28;20036;-89
2021/09/17 00:49:16;;;;;;;6.43;1.23;;;;;;;13.07;100.00;100408.41;5057581;28;20064;-89
2021/09/17 00:51:42;;;;;;;8.43;1.45;;;;;;;13.06;100.00;100407.56;5075411;28;20043;-88
2021/09/17 00:54:07;;;;;;;9.85;1.10;;;;;;;13.08;100.00;100408.38;5057228;28;20539;-89
2021/09/17 00:56:33;;;;;;;9.60;1.00;;;;;;;13.07;100.00;100408.41;5075021;28;20469;-89
2021/09/17 00:58:58;;;;;;;10.60;0.93;;;;;;;13.06;100.00;100406.72;5057188;28;20033;-88
2021/09/17 01:01:24;;;;;;;5.80;0.90;;;;;;;13.05;100.00;100410.19;5075405;28;20024;-89
2021/09/17 01:03:49;;;;;;;6.72;1.00;;;;;;;13.01;100.00;100404.22;5057208;28;20391;-89
2021/09/17 01:06:15;;;;;;;5.35;0.93;;;;;;;13.02;100.00;100395.53;5056900;28;20028;-89
2021/09/17 01:08:40;;;;;;;9.85;1.10;;;;;;;13.05;100.00;100405.00;5074850;28;20017;-89
2021/09/17 01:11:06;;;;;;;6.32;0.90;;;;;;;13.02;100.00;100405.09;5057038;28;20089;-89
2021/09/17 01:13:31;;;;;;;4.93;0.77;;;;;;;13.04;100.00;100411.94;5056878;28;20027;-89
2021/09/17 01:15:57;;;;;;;3.38;0.73;;;;;;;12.99;100.00;100400.84;5057045;28;20029;-89
2021/09/17 01:18:23;;;;;;;5.28;0.80;;;;;;;13.00;100.00;100402.53;5056762;28;20020;-89
2021/09/17 01:20:48;;;;;;;5.03;0.68;;;;;;;13.02;100.00;100400.75;5056764;28;20036;-89
2021/09/17 01:23:13;;;;;;;7.55;0.82;;;;;;;13.03;100.00;100396.41;5056702;28;20052;-89
2021/09/17 01:25:39;;;;;;;8.20;0.90;;;;;;;13.02;100.00;100400.75;5074759;28;20039;-89
2021/09/17 01:28:04;;;;;;;9.23;0.88;;;;;;;12.99;100.00;100395.63;5056575;28;20024;-89
2021/09/17 01:30:29;;;;;;;7.00;0.70;;;;;;;13.00;100.00;100394.72;5056647;28;20125;-89
2021/09/17 01:32:55;;;;;;;5.90;0.60;;;;;;;13.00;100.00;100386.91;5074448;28;20052;-89
2021/09/17 01:35:22;;;;;;;6.70;0.80;;;;;;;13.00;100.00;100397.34;5074389;28;20145;-89
2021/09/17 01:37:49;;;;;;;6.15;1.00;;;;;;;13.01;100.00;100387.75;5056516;28;20016;-89
2021/09/17 01:40:14;;;;;;;7.90;0.90;;;;;;;13.02;100.00;100387.75;5056464;28;20028;-89
2021/09/17 01:42:40;;;;;;;7.18;0.80;;;;;;;13.00;100.00;100383.47;5056272;28;20027;-89
2021/09/17 01:45:06;;;;;;;5.10;0.60;;;;;;;13.01;100.00;100388.63;5056251;28;20028;-89
2021/09/17 01:47:31;;;;;;;8.07;1.00;;;;;;;13.01;100.00;100388.63;5056522;28;20035;-88
2021/09/17 01:49:57;;;;;;;3.95;0.63;;;;;;;13.01;100.00;100387.75;5074025;28;20035;-89
2021/09/17 01:52:22;;;;;;;3.47;0.70;;;;;;;12.99;100.00;100385.22;5056114;28;20387;-89
2021/09/17 01:54:47;;;;;;;5.97;0.65;;;;;;;13.00;100.00;100391.28;5056102;28;20017;-89
2021/09/17 01:57:13;;;;;;;5.03;0.60;;;;;;;13.01;100.00;100388.63;5056072;28;20428;-89
2021/09/17 01:59:38;;;;;;;6.85;1.15;;;;;;;13.02;100.00;100381.66;5056034;28;20028;-89
2021/09/17 02:02:04;;;;;;;5.20;0.60;;;;;;;13.01;100.00;100385.16;5056059;28;20025;-89
2021/09/17 02:04:29;;;;;;;8.80;0.98;;;;;;;13.01;100.00;100378.19;5055900;28;20020;-89
2021/09/17 02:06:54;;;;;;;4.88;0.75;;;;;;;13.03;100.00;100383.38;5055754;28;20074;-88
2021/09/17 02:09:19;;;;;;;4.95;0.85;;;;;;;13.02;100.00;100382.53;5055937;28;20115;-88
2021/09/17 02:11:45;;;;;;;5.47;0.73;;;;;;;13.02;100.00;100379.94;5056493;28;20033;-89
2021/09/17 02:14:10;;;;;;;7.65;0.65;;;;;;;12.99;100.00;100385.22;5073906;28;20016;-89
2021/09/17 02:16:37;;;;;;;5.70;0.80;;;;;;;12.98;100.00;100388.72;5055720;28;20074;-89
2021/09/17 02:19:03;;;;;;;5.78;0.75;;;;;;;13.02;100.00;100379.03;5055713;28;20450;-89
2021/09/17 02:21:29;;;;;;;4.93;0.75;;;;;;;12.99;100.00;100382.63;5073561;28;20025;-88
2021/09/17 02:23:54;;;;;;;4.22;0.70;;;;;;;12.93;100.00;100377.59;5055580;28;20028;-89
2021/09/17 02:26:20;;;;;;;5.72;0.82;;;;;;;12.92;100.00;100386.28;5055566;28;20020;-88
2021/09/17 02:28:46;;;;;;;4.30;0.80;;;;;;;12.92;100.00;100381.09;5056051;28;20083;-88
2021/09/17 02:31:11;;;;;;;6.80;1.00;;;;;;;12.97;100.00;100391.38;5055557;28;20063;-89
2021/09/17 02:33:37;;;;;;;3.75;0.63;;;;;;;12.93;100.00;100387.13;5055575;28;20024;-89
2021/09/17 02:36:03;;;;;;;6.55;0.85;;;;;;;12.95;100.00;100383.59;5073282;28;20020;-88
2021/09/17 02:38:28;;;;;;;5.90;0.82;;;;;;;12.91;100.00;100382.00;5055436;28;20032;-88
2021/09/17 02:40:54;;;;;;;3.22;0.60;;;;;;;12.93;100.00;100379.34;5055438;28;20024;-88
2021/09/17 02:43:19;;;;;;;4.70;0.85;;;;;;;12.94;100.00;100381.06;5055390;28;20392;-89
2021/09/17 02:45:44;;;;;;;3.90;0.90;;;;;;;12.94;100.00;100384.50;5073186;28;20092;-89
2021/09/17 02:48:10;;;;;;;8.60;1.23;;;;;;;12.98;100.00;100375.69;5055370;28;20031;-89
2021/09/17 02:50:36;;;;;;;5.15;0.80;;;;;;;12.97;100.00;100381.81;5073313;28;20067;-88
2021/09/17 02:53:01;;;;;;;6.88;0.90;;;;;;;12.98;100.00;100374.84;5055293;28;20149;-89
2021/09/17 02:55:26;;;;;;;6.63;0.80;;;;;;;12.96;100.00;100382.72;5055233;28;20024;-89
2021/09/17 02:57:52;;;;;;;3.03;0.68;;;;;;;12.97;100.00;100388.78;5055184;28;20063;-89
2021/09/17 03:00:19;;;;;;;6.15;0.93;;;;;;;12.91;100.00;100392.41;5073156;28;20026;-89
2021/09/17 03:02:45;;;;;;;4.03;0.70;;;;;;;12.92;100.00;100380.25;5055744;28;20031;-89
2021/09/17 03:05:11;;;;;;;5.80;0.82;;;;;;;12.86;100.00;100383.88;5055254;28;20032;-89
2021/09/17 03:07:36;;;;;;;3.28;0.60;;;;;;;12.81;100.00;100376.22;5054997;28;20032;-89
2021/09/17 03:10:03;;;;;;;4.45;0.70;;;;;;;12.79;100.00;100378.00;5056063;28;20035;-89
2021/09/17 03:12:29;;;;;;;5.50;0.90;;;;;;;12.78;100.00;100380.69;5077051;28;20035;-89
2021/09/17 03:14:54;;;;;;;3.85;0.60;;;;;;;12.80;100.00;100373.66;5058950;28;20020;-89
2021/09/17 03:17:19;;;;;;;4.13;0.60;;;;;;;12.79;100.00;100372.81;5059352;28;20026;-89
2021/09/17 03:19:44;;;;;;;3.58;0.70;;;;;;;12.78;100.00;100376.31;5077868;28;20037;-89
2021/09/17 03:22:10;;;;;;;4.40;1.00;;;;;;;12.79;100.00;100369.34;5082831;28;20024;-89
2021/09/17 03:24:35;;;;;;;2.60;0.50;;;;;;;12.78;100.00;100367.66;5065005;28;20050;-89
2021/09/17 03:27:00;;;;;;;4.57;0.95;;;;;;;12.76;100.00;100377.25;5064819;28;20028;-89
2021/09/17 03:29:26;;;;;;;8.85;0.88;;;;;;;12.81;100.00;100370.16;5066557;28;20034;-89
2021/09/17 03:31:51;;;;;;;4.90;0.80;;;;;;;12.80;100.00;100371.91;5065105;28;20056;-89
2021/09/17 03:34:16;;;;;;;6.47;0.85;;;;;;;12.81;100.00;100375.38;5067018;28;20134;-89
2021/09/17 03:36:42;;;;;;;8.32;0.60;;;;;;;12.79;100.00;100369.34;5066383;28;20024;-89
2021/09/17 03:39:12;;;;;;;3.78;0.65;;;;;;;12.83;100.00;100378.75;5068458;28;20025;-89
2021/09/17 03:41:39;;;;;;;3.50;0.55;;;;;;;12.76;100.00;100372.06;5084083;28;20025;-89
2021/09/17 03:44:05;;;;;;;4.18;0.63;;;;;;;12.79;100.00;100370.19;5066877;28;20442;-89
2021/09/17 03:46:30;;;;;;;5.43;0.60;;;;;;;12.82;100.00;100371.88;5059333;28;20017;-89
2021/09/17 03:48:55;;;;;;;1.92;0.43;;;;;;;12.81;100.00;100364.97;5058969;28;20488;-89
2021/09/17 03:51:21;;;;;;;6.45;0.77;;;;;;;12.83;100.00;100373.56;5059395;28;20020;-89
2021/09/17 03:53:46;;;;;;;2.63;0.50;;;;;;;12.84;100.00;100362.28;5063217;28;20032;-89
2021/09/17 03:56:11;;;;;;;3.47;0.50;;;;;;;12.81;100.00;100365.81;5084538;28;20081;-89
2021/09/17 03:58:36;;;;;;;5.50;0.77;;;;;;;12.83;100.00;100368.34;5058645;28;20033;-89
2021/09/17 04:01:02;;;;;;;7.18;0.73;;;;;;;12.79;100.00;100374.56;5058386;28;20047;-88
2021/09/17 04:03:27;;;;;;;3.83;0.68;;;;;;;12.81;100.00;100376.22;5058618;28;20086;-88
2021/09/17 04:05:52;;;;;;;5.05;0.75;;;;;;;12.83;100.00;100374.41;5058450;28;20043;-89
2021/09/17 04:08:18;;;;;;;7.50;1.35;;;;;;;12.77;100.00;100382.41;5058281;28;20030;-88
2021/09/17 04:10:43;;;;;;;3.63;0.50;;;;;;;12.80;100.00;100377.09;5058164;28;20106;-88
2021/09/17 04:13:08;;;;;;;5.55;1.05;;;;;;;12.78;100.00;100384.13;5058008;28;20020;-88
2021/09/17 04:15:33;;;;;;;4.88;0.80;;;;;;;12.80;100.00;100384.06;5057933;28;20063;-88
2021/09/17 04:17:59;;;;;;;4.97;0.65;;;;;;;12.77;100.00;100378.94;5079719;23;20040;-87
2021/09/17 04:20:24;;;;;;;4.63;0.70;;;;;;;12.71;100.00;100376.53;5076620;28;20111;-86
2021/09/17 04:22:49;;;;;;;6.38;0.65;;;;;;;12.74;100.00;100379.88;5057423;28;20032;-86
2021/09/17 04:25:15;;;;;;;5.30;0.60;;;;;;;12.73;100.00;100380.81;5076353;28;20028;-86
2021/09/17 04:27:44;;;;;;;3.08;0.60;;;;;;;12.73;100.00;100377.34;5058407;28;20032;-86
2021/09/17 04:30:10;;;;;;;2.72;0.52;;;;;;;12.71;100.00;100384.34;5058310;28;20029;-86
2021/09/17 04:32:36;;;;;;;5.78;0.70;;;;;;;12.71;100.00;100384.34;5058360;28;20485;-86
2021/09/17 04:35:03;;;;;;;3.45;0.40;;;;;;;12.71;100.00;100384.34;5084067;28;20040;-86
2021/09/17 04:37:28;;;;;;;4.50;0.50;;;;;;;12.72;100.00;100393.88;5057907;28;20017;-86
2021/09/17 04:39:53;;;;;;;2.78;0.65;;;;;;;12.69;100.00;100393.97;5058503;28;20028;-86
2021/09/17 04:42:19;;;;;;;3.88;0.50;;;;;;;12.65;100.00;100394.06;5076300;28;20025;-86
2021/09/17 04:44:44;;;;;;;4.72;0.63;;;;;;;12.66;100.00;100398.34;5058566;28;20047;-85
2021/09/17 04:47:09;;;;;;;3.72;0.50;;;;;;;12.65;100.00;100394.06;5061373;28;20032;-85
2021/09/17 04:49:34;;;;;;;2.70;0.63;;;;;;;12.55;100.00;100397.78;5062089;28;20119;-86
2021/09/17 04:52:00;;;;;;;4.53;0.40;;;;;;;12.57;100.00;100395.16;5076807;28;20064;-87
2021/09/17 04:54:25;;;;;;;3.22;0.30;;;;;;;12.61;100.00;100402.81;5058333;28;20020;-87
2021/09/17 04:56:50;;;;;;;5.95;0.60;;;;;;;12.58;100.00;100404.66;5058687;28;20392;-87
2021/09/17 04:59:15;;;;;;;3.88;0.60;;;;;;;12.56;100.00;100402.13;5057807;28;20029;-87
2021/09/17 05:01:41;;;;;;;7.35;0.50;;;;;;;12.58;100.00;100404.66;5058307;28;20020;-87
2021/09/17 05:04:06;;;;;;;4.68;0.65;;;;;;;12.57;100.00;100411.63;5076232;28;20024;-87
2021/09/17 05:06:31;;;;;;;3.70;0.50;;;;;;;12.55;100.00;100416.00;5058031;28;20035;-87
2021/09/17 05:08:57;;;;;;;3.13;0.88;;;;;;;12.57;100.00;100413.38;5057538;28;20020;-87
2021/09/17 05:11:23;;;;;;;6.57;0.50;;;;;;;12.51;100.00;100409.19;5058324;28;20020;-87
2021/09/17 05:13:48;;;;;;;6.80;0.40;;;;;;;12.47;100.00;100407.59;5081384;28;20013;-85
2021/09/17 05:16:13;;;;;;;0.35;0.10;;;;;;;12.47;100.00;100412.78;5071467;28;20025;-87
2021/09/17 05:18:39;;;;;;;4.32;0.30;;;;;;;12.38;100.00;100411.28;5059304;28;20115;-86
2021/09/17 05:21:04;;;;;;;2.15;0.55;;;;;;;12.43;100.00;100412.00;5058812;28;20414;-86
2021/09/17 05:23:29;;;;;;;1.98;0.30;;;;;;;12.36;100.00;100410.47;5058423;28;20116;-87
2021/09/17 05:25:55;;;;;;;5.32;0.32;;;;;;;12.48;100.00;100413.63;5058000;28;20028;-86
2021/09/17 05:28:20;;;;;;;2.28;0.20;;;;;;;12.50;100.00;100412.72;5058188;28;20021;-87
2021/09/17 05:30:45;;;;;;;2.55;0.30;;;;;;;12.43;100.00;100412.00;5057789;28;20480;-87
2021/09/17 05:33:10;;;;;;;1.45;0.30;;;;;;;12.29;100.00;100414.16;5057298;28;20119;-88
2021/09/17 05:35:36;;;;;;;0.80;0.20;;;;;;;12.30;100.00;100409.81;5057258;28;20036;-88
2021/09/17 05:38:01;;;;;;;2.17;0.30;;;;;;;12.25;100.00;100406.47;5075361;28;20017;-85
2021/09/17 05:40:26;;;;;;;2.08;0.30;;;;;;;12.17;100.00;100414.50;5057691;28;20419;-87
2021/09/17 05:42:52;;;;;;;1.67;0.30;;;;;;;12.24;100.00;100413.41;5057317;28;20077;-87
2021/09/17 05:45:17;;;;;;;1.48;0.15;;;;;;;12.23;100.00;100413.47;5057430;28;20457;-88
2021/09/17 05:47:43;;;;;;;0.57;0.10;;;;;;;12.25;100.00;100417.72;5057130;28;20017;-88
2021/09/17 05:50:09;;;;;;;0.95;0.20;;;;;;;12.23;100.00;100426.47;5057093;28;20029;-88
2021/09/17 05:52:35;;;;;;;5.03;1.25;;;;;;;12.28;100.00;100421.97;5057016;28;20025;-88
2021/09/17 05:55:00;;;;;;;1.77;0.30;;;;;;;12.24;100.00;100418.63;5056766;28;20047;-87
2021/09/17 05:57:25;;;;;;;1.85;0.20;;;;;;;12.23;100.00;100424.72;5075022;28;20056;-87
2021/09/17 05:59:50;;;;;;;1.67;0.22;;;;;;;12.28;100.00;100420.22;5056840;28;20032;-87
2021/09/17 06:02:16;;;;;;;0.75;0.15;;;;;;;12.27;100.00;100420.28;5057118;28;20384;-85
2021/09/17 06:04:42;;;;;;;1.17;0.32;;;;;;;12.25;100.00;100414.25;5074826;28;20031;-85
2021/09/17 06:07:07;;;;;;;1.65;0.28;;;;;;;12.29;100.00;100423.72;5057889;28;20396;-86
2021/09/17 06:09:35;;;;;;;0.93;0.20;;;;;;;12.26;100.00;100408.19;5062544;28;20024;-86
2021/09/17 06:12:00;;;;;;;1.23;0.30;;;;;;;12.35;100.00;100415.75;5057790;28;20033;-87
2021/09/17 06:14:25;;;;;;;2.72;0.30;;;;;;;12.34;100.00;100416.63;5057314;28;20082;-87
2021/09/17 06:16:51;;;;;;;29.33;16.92;;;;;;;12.34;100.00;100409.66;5075072;28;20028;-86
2021/09/17 06:19:16;;;;;;;18.90;9.85;;;;;;;12.37;100.00;100406.97;5073818;28;20396;-86
2021/09/17 06:21:41;;;;;;;7.68;3.17;;;;;;;12.40;100.00;100413.84;5056311;28;20024;-86
2021/09/17 06:24:07;;;;;;;8.75;0.50;;;;;;;12.50;100.00;100406.63;5056406;28;20392;-86
2021/09/17 06:26:32;;;;;;;0.68;0.20;;;;;;;12.45;100.00;100414.56;5074158;28;20035;-87
2021/09/17 06:28:59;;;;;;;2.58;0.40;;;;;;;12.49;100.00;100417.94;5056376;28;20499;-87
2021/09/17 06:31:25;;;;;;;2.83;0.40;;;;;;;12.60;100.00;100413.28;5055974;28;20020;-87
2021/09/17 06:33:50;;;;;;;2.50;0.25;;;;;;;12.72;100.00;100410.34;5055997;28;20074;-87
2021/09/17 06:36:16;;;;;;;1.35;0.20;;;;;;;12.73;100.00;100413.78;5073898;28;20388;-87
2021/09/17 06:38:41;;;;;;;1.40;0.30;;;;;;;12.83;100.00;100416.06;5056275;28;20024;-87
2021/09/17 06:41:06;;;;;;;2.85;0.35;;;;;;;12.96;100.00;100419.16;5056111;28;20033;-87
2021/09/17 06:43:31;;;;;;;1.52;0.30;;;;;;;12.79;100.00;100408.41;5056113;28;20472;-87
2021/09/17 06:45:57;;;;;;;0.90;0.30;;;;;;;12.78;100.00;100420.56;5055170;28;20115;-87
2021/09/17 06:48:22;;;;;;;0.30;0.20;;;;;;;12.94;100.00;100418.34;5073820;28;20021;-87
2021/09/17 06:50:47;;;;;;;3.35;0.30;;;;;;;12.90;100.00;100416.75;5056522;28;20131;-86
2021/09/17 06:53:12;;;;;;;0.65;0.10;;;;;;;12.97;100.00;100417.41;5057593;28;20032;-87
2021/09/17 06:55:38;;;;;;;0.98;0.25;;;;;;;13.00;100.00;100423.38;5056412;28;20028;-87
2021/09/17 06:58:04;;;;;;;2.42;0.22;;;;;;;13.10;100.00;100413.53;5055952;28;20119;-87
2021/09/17 07:00:33;;;;;;;0.90;0.20;;;;;;;13.36;100.00;100415.31;5056378;28;20044;-87
2021/09/17 07:02:58;;;;;;;2.03;0.20;;;;;;;13.56;100.00;100415.53;5075012;28;20388;-87
2021/09/17 07:05:25;;;;;;;2.50;0.30;;;;;;;13.86;100.00;100404.16;5056796;28;20024;-87
2021/09/17 07:07:51;;;;;;;0.98;0.28;;;;;;;14.04;100.00;100419.16;5055757;28;20024;-87
2021/09/17 07:10:17;;;;;;;0.90;0.28;;;;;;;15.21;100.00;100410.50;5056497;28;20020;-87
2021/09/17 07:12:46;;;;;;;0.80;0.20;;;;;;;14.62;100.00;100417.06;5057390;28;20020;-87
2021/09/17 07:15:12;;;;;;;1.35;0.30;;;;;;;15.06;100.00;100409.31;5073814;28;20078;-87
2021/09/17 07:17:39;;;;;;;0.55;0.20;;;;;;;15.35;100.00;100410.75;5073351;28;20452;-86
2021/09/17 07:20:05;;;;;;;0.90;0.20;;;;;;;15.39;100.00;100414.09;5056195;28;20024;-86
2021/09/17 07:22:30;;;;;;;0.85;0.30;;;;;;;15.20;100.00;100424.44;5055892;28;20043;-87
2021/09/17 07:24:55;;;;;;;0.60;0.20;;;;;;;15.27;100.00;100410.25;5062018;28;20028;-87
2021/09/17 07:27:21;;;;;;;3.35;0.60;;;;;;;16.38;100.00;100414.31;5056141;28;20020;-87
2021/09/17 07:29:46;;;;;;;0.77;0.13;;;;;;;15.50;100.00;100416.28;5055858;28;20024;-87
2021/09/17 07:32:11;;;;;;;2.75;0.30;;;;;;;14.91;100.00;100412.53;5056844;28;20032;-87
2021/09/17 07:34:37;;;;;;;0.73;0.17;;;;;;;14.34;100.00;100414.59;5073222;28;20025;-86
2021/09/17 07:37:03;;;;;;;1.02;0.20;;;;;;;14.34;100.00;100422.41;5078756;28;20020;-86
2021/09/17 07:39:28;;;;;;;0.95;0.10;;;;;;;14.05;100.00;100416.50;5061152;28;20071;-86
2021/09/17 07:41:53;;;;;;;3.05;0.20;;;;;;;14.24;100.00;100419.28;5074289;28;20056;-87
2021/09/17 07:44:18;;;;;;;1.15;0.30;;;;;;;14.16;100.00;100415.25;5080941;28;20029;-86
2021/09/17 07:46:44;;;;;;;0.32;0.10;;;;;;;14.33;100.00;100425.94;5055549;28;20032;-87
2021/09/17 07:49:09;;;;;;;0.70;0.20;;;;;;;14.21;100.00;100427.22;5073251;28;20060;-86
2021/09/17 07:51:35;;;;;;;1.42;0.30;;;;;;;14.21;100.00;100426.38;5055217;28;20108;-86
2021/09/17 07:54:00;;;;;;;1.30;0.22;;;;;;;14.39;100.00;100428.34;5055353;28;20466;-86
2021/09/17 07:56:25;;;;;;;1.65;0.30;;;;;;;14.86;100.00;100422.28;5074398;28;20392;-86
2021/09/17 07:58:51;;;;;;;1.80;0.30;;;;;;;15.17;100.00;100430.63;5059001;28;20046;-87
2021/09/17 08:01:16;;;;;;;0.68;0.20;;;;;;;15.63;100.00;100423.56;5058944;28;20115;-86
2021/09/17 08:03:41;;;;;;;1.13;0.20;;;;;;;16.60;100.00;100422.03;5059009;28;20040;-86
2021/09/17 08:06:09;;;;;;;1.23;0.25;;;;;;;16.80;100.00;100440.31;5076887;28;20024;-87
2021/09/17 08:08:34;;;;;;;1.13;0.20;;;;;;;16.74;100.00;100437.13;5058796;28;20025;-87
2021/09/17 08:10:59;;;;;;;2.47;0.30;;;;;;;16.73;100.00;100440.66;5058758;28;20496;-86
2021/09/17 08:13:25;;;;;;;0.55;0.15;;;;;;;15.92;100.00;100441.59;5058678;28;20040;-87
2021/09/17 08:15:50;;;;;;;0.38;0.22;;;;;;;15.50;100.00;100439.81;5058497;28;20369;-87
2021/09/17 08:18:15;;;;;;;0.05;0.05;;;;;;;14.96;100.00;100444.53;5058358;28;20036;-87
2021/09/17 08:20:48;;;;;;;1.38;0.20;;;;;;;15.68;100.00;100431.25;5076415;28;20029;-87
2021/09/17 08:23:13;;;;;;;1.65;0.20;;;;;;;15.81;100.00;100440.28;5076334;28;20024;-86
2021/09/17 08:25:39;;;;;;;4.10;0.90;;;;;;;15.16;100.00;100447.22;5058321;28;20024;-86
2021/09/17 08:28:04;;;;;;;0.55;0.10;;;;;;;14.98;100.00;100444.47;5075946;28;20027;-86
2021/09/17 08:30:30;;;;;;;1.38;0.20;;;;;;;15.07;100.00;100450.19;5058299;28;20107;-86
2021/09/17 08:32:55;;;;;;;7.03;0.30;;;;;;;14.72;100.00;100449.78;5058222;28;20035;-86
2021/09/17 08:35:20;;;;;;;0.63;0.10;;;;;;;14.64;100.00;100456.19;5058442;28;20063;-85
2021/09/17 08:37:45;;;;;;;2.53;0.20;;;;;;;14.70;100.00;100456.81;5058346;28;20033;-86
2021/09/17 08:40:11;;;;;;;1.63;0.35;;;;;;;14.51;100.00;100453.19;5076124;28;20048;-85
2021/09/17 08:42:37;;;;;;;2.95;0.55;;;;;;;14.49;100.00;100455.78;5076576;28;20447;-86
2021/09/17 08:45:05;;;;;;;3.17;0.30;;;;;;;14.39;100.00;100456.19;5076438;28;20477;-86
2021/09/17 08:47:30;;;;;;;1.00;0.30;;;;;;;14.67;100.00;100466.53;5057847;28;20031;-86
2021/09/17 08:49:56;;;;;;;1.10;0.20;;;;;;;14.64;100.00;100457.03;5058797;28;20489;-86
2021/09/17 08:52:21;;;;;;;3.67;0.60;;;;;;;14.87;100.00;100465.75;5058030;28;20021;-86
2021/09/17 08:54:47;;;;;;;1.70;0.32;;;;;;;14.84;100.00;100466.75;5057853;28;20040;-85
2021/09/17 08:57:12;;;;;;;3.13;0.77;;;;;;;15.06;100.00;100456.34;5057865;28;20020;-86
2021/09/17 08:59:38;;;;;;;53.78;26.33;;;;;;;15.02;100.00;100457.34;5057773;28;20031;-86
2021/09/17 09:02:23;;;;;;;3.17;1.23;;;;;;;15.14;100.00;100467.31;5075800;28;20103;-86
2021/09/17 09:05:03;;;;;;;1.50;0.30;;;;;;;15.07;100.00;100470.25;5058048;28;20033;-86
2021/09/17 09:07:31;;;;;;;1.63;0.77;;;;;;;15.22;100.00;100474.88;5074761;28;20028;-86
2021/09/17 09:10:13;;;;;;;3.13;0.30;;;;;;;14.88;100.00;100470.94;5057540;28;20090;-86
2021/09/17 09:12:49;;;;;;;1.75;0.40;;;;;;;15.15;100.00;100460.38;5057503;28;20048;-86
2021/09/17 09:15:16;;;;;;;2.97;0.60;;;;;;;15.19;100.00;100465.41;5057301;28;20043;-87
2021/09/17 09:17:44;;;;;;;1.95;0.38;;;;;;;15.37;100.00;100474.28;5057027;28;20021;-86
2021/09/17 09:20:30;;;;;;;2.00;0.50;;;;;;;15.49;100.00;100462.50;5082374;28;20107;-86
2021/09/17 09:23:19;;;;;;;1.23;0.25;;;;;;;15.06;100.00;100466.78;5057839;28;20024;-86
2021/09/17 09:25:50;;;;;;;2.03;0.43;;;;;;;15.14;100.00;100471.72;5074986;28;20017;-86
2021/09/17 09:28:17;;;;;;;1.63;0.30;;;;;;;15.18;100.00;100468.94;5075146;28;20028;-86
2021/09/17 09:30:42;;;;;;;0.80;0.20;;;;;;;15.24;100.00;100470.47;5057284;28;20032;-87
2021/09/17 09:33:26;;;;;;;0.65;0.22;;;;;;;15.31;100.00;100468.47;5059489;28;20032;-86
2021/09/17 09:36:15;;;;;;;0.50;0.30;;;;;;;15.19;100.00;100472.38;5058571;28;20054;-86
2021/09/17 09:38:44;;;;;;;0.73;0.20;;;;;;;15.10;100.00;100480.59;5049785;28;20488;-87
2021/09/17 09:41:27;;;;;;;2.53;0.55;;;;;;;15.29;100.00;100476.34;5075494;28;20105;-87
2021/09/17 09:43:54;;;;;;;1.58;0.30;;;;;;;15.51;100.00;100470.25;5057314;28;20036;-87
2021/09/17 09:46:31;;;;;;;3.28;0.30;;;;;;;15.42;100.00;100471.47;5056924;28;20560;-86
2021/09/17 09:49:01;;;;;;;4.72;0.50;;;;;;;15.54;100.00;100467.53;5056906;28;20033;-85
2021/09/17 09:51:27;;;;;;;1.20;0.25;;;;;;;15.58;100.00;100461.28;5074837;28;20024;-86
2021/09/17 09:53:52;;;;;;;1.13;0.20;;;;;;;15.78;100.00;100463.94;5074703;28;20020;-85
2021/09/17 09:56:19;;;;;;;5.78;0.60;;;;;;;16.62;100.00;100456.84;5074040;28;20012;-85
2021/09/17 09:58:47;;;;;;;1.73;0.65;;;;;;;16.19;100.00;100456.13;5095069;28;20464;-86
2021/09/17 10:01:16;;;;;;;0.90;0.35;;;;;;;16.52;100.00;100458.19;5057634;28;20032;-86
2021/09/17 10:03:43;;;;;;;0.45;0.20;;;;;;;17.75;100.00;100453.28;5056899;28;20020;-86
2021/09/17 10:06:09;;;;;;;2.60;0.30;;;;;;;17.00;100.00;100454.28;5057176;28;20021;-87
2021/09/17 10:08:35;;;;;;;2.38;0.50;;;;;;;16.85;100.00;100455.00;5074428;28;20107;-86
2021/09/17 10:11:00;;;;;;;1.95;0.20;;;;;;;15.78;100.00;100456.09;5057127;28;20024;-86
2021/09/17 10:13:25;;;;;;;1.50;0.40;;;;;;;14.95;100.00;100455.88;5056852;28;20036;-86
2021/09/17 10:15:51;;;;;;;0.98;0.30;;;;;;;17.44;100.00;100459.19;5081861;28;20435;-86
2021/09/17 10:18:17;;;;;;;1.65;0.40;;;;;;;18.15;100.00;100454.78;5074212;28;20060;-86
2021/09/17 10:20:43;;;;;;;1.65;0.40;;;;;;;17.67;100.00;100458.94;5107402;23;20087;-87
2021/09/17 10:23:39;;;;;;;3.85;0.30;;;;;;;16.49;100.00;100455.69;5092652;28;20020;-87
2021/09/17 10:26:09;;;;;;;1.70;0.30;;;;;;;16.07;100.00;100447.06;5080050;28;20032;-87
2021/09/17 10:29:05;;;;;;;1.05;0.25;;;;;;;15.77;100.00;100467.50;5092692;28;20020;-86
2021/09/17 10:31:45;;;;;;;1.27;0.30;;;;;;;15.15;100.00;100462.97;5092609;28;20015;-86
2021/09/17 10:34:35;;;;;;;4.47;0.57;;;;;;;15.20;100.00;100466.25;5093824;28;20031;-86
2021/09/17 10:37:02;;;;;;;82.88;55.13;;;;;;;15.28;100.00;100458.97;5092490;28;20078;-86
2021/09/17 10:39:27;;;;;;;116.57;86.47;;;;;;;15.19;100.00;100464.56;5093509;28;20028;-86
2021/09/17 10:43:11;;;;;;;2.03;0.23;;;;;;;14.94;100.00;100460.28;5119197;27;1169116;-85
2021/09/17 10:45:47;;;;;;;0.73;0.20;;;;;;;14.69;100.00;100462.09;5131642;27;20465;-86
2021/09/17 10:48:14;;;;;;;7.20;0.60;;;;;;;14.41;100.00;100463.06;5130750;28;20106;-85
2021/09/17 10:51:02;;;;;;;1.75;0.30;;;;;;;14.43;100.00;100463.00;5091000;27;20369;-85
2021/09/17 10:53:53;;;;;;;1.05;0.30;;;;;;;14.53;100.00;100459.16;5089632;28;20403;-85
2021/09/17 10:56:18;;;;;;;0.52;0.20;;;;;;;14.98;100.00;100460.16;5086295;28;20119;-85
2021/09/17 10:58:45;;;;;;;4.72;0.50;;;;;;;15.23;100.00;100466.13;5089617;28;20491;-85
2021/09/17 11:01:13;;;;;;;0.57;0.22;;;;;;;15.40;100.00;100463.72;5090683;28;20085;-85
2021/09/17 11:03:38;;;;;;;5.45;2.35;;;;;;;15.13;100.00;100464.78;5089349;28;20020;-87
2021/09/17 11:06:26;;;;;;;41.17;25.77;;;;;;;15.29;100.00;100458.03;5090281;28;20028;-85
2021/09/17 11:09:05;;;;;;;3.55;0.63;;;;;;;15.27;100.00;100456.41;5090829;28;20028;-86
2021/09/17 11:11:48;;;;;;;1.27;0.52;;;;;;;15.50;100.00;100453.75;5111920;27;20408;-86
2021/09/17 11:14:19;;;;;;;11.90;4.80;;;;;;;15.40;100.00;100457.63;5109883;28;20039;-86
2021/09/17 11:16:49;;;;;;;71.00;53.78;;;;;;;15.50;100.00;100451.13;5109836;28;20043;-86